createdAt,value
2018-03-01T00:00:29.315Z,18.55
2018-03-01T00:02:58.679Z,16.20
2018-03-01T00:05:29.118Z,16.98
2018-03-01T00:07:58.993Z,14.55
2018-03-01T00:10:29.766Z,15.93
2018-03-01T00:12:59.064Z,15.40
2018-03-01T00:15:28.531Z,16.62
2018-03-01T00:17:57.824Z,15.05
2018-03-01T00:20:27.083Z,14.77
2018-03-01T00:22:56.598Z,15.25
2018-03-01T00:25:25.783Z,16.30
2018-03-01T00:27:54.938Z,17.15
2018-03-01T00:30:26.663Z,16.10
2018-03-01T00:32:57.426Z,16.50
2018-03-01T00:35:26.561Z,15.63
2018-03-01T00:37:55.995Z,14.52
2018-03-01T00:40:25.365Z,15.65
2018-03-01T00:42:54.468Z,14.80
2018-03-01T00:45:25.996Z,15.23
2018-03-01T00:47:56.628Z,15.43
2018-03-01T00:50:26.545Z,14.68
2018-03-01T00:52:58.551Z,15.25
2018-03-01T00:55:34.568Z,15.82
2018-03-01T00:58:05.916Z,14.05
2018-03-01T01:00:39.530Z,15.80
2018-03-01T01:03:08.704Z,15.40
2018-03-01T01:05:38.138Z,17.20
2018-03-01T01:08:09.205Z,15.23
2018-03-01T01:10:38.141Z,16.55
2018-03-01T01:13:09.852Z,14.55
2018-03-01T01:15:39.122Z,16.00
2018-03-01T01:18:08.227Z,16.70
2018-03-01T01:20:39.286Z,16.40
2018-03-01T01:23:10.190Z,16.80
2018-03-01T01:25:40.181Z,16.87
2018-03-01T01:28:11.776Z,15.50
2018-03-01T01:30:41.916Z,16.30
2018-03-01T01:33:11.929Z,13.75
2018-03-01T01:38:16.244Z,14.90
2018-03-01T01:40:46.431Z,15.65
2018-03-01T01:43:16.286Z,16.33
2018-03-01T01:45:45.480Z,18.45
2018-03-01T01:48:14.891Z,20.62
2018-03-01T01:53:34.081Z,17.55
2018-03-01T01:56:03.176Z,18.52
2018-03-01T02:01:09.751Z,16.67
2018-03-01T02:03:39.046Z,18.27
2018-03-01T02:06:10.842Z,18.73
2018-03-01T02:08:40.509Z,17.83
2018-03-01T02:11:10.570Z,18.23
2018-03-01T02:13:40.675Z,17.30
2018-03-01T02:16:09.845Z,19.05
2018-03-01T02:18:39.845Z,19.10
2018-03-01T02:21:10.677Z,17.58
2018-03-01T02:23:40.824Z,18.48
2018-03-01T02:26:11.542Z,18.62
2018-03-01T02:28:40.591Z,19.27
2018-03-01T02:31:10.148Z,20.42
2018-03-01T02:33:39.717Z,18.30
2018-03-01T02:36:08.950Z,19.83
2018-03-01T02:38:39.766Z,18.17
2018-03-01T02:41:10.856Z,17.23
2018-03-01T02:43:42.998Z,17.02
2018-03-01T02:46:12.338Z,17.30
2018-03-01T02:48:41.604Z,17.92
2018-03-01T02:51:20.451Z,17.08
2018-03-01T02:53:51.172Z,17.48
2018-03-01T02:56:21.046Z,17.75
2018-03-01T02:58:53.006Z,16.02
2018-03-01T03:01:24.251Z,16.30
2018-03-01T03:03:54.422Z,16.00
2018-03-01T03:06:24.514Z,19.50
2018-03-01T03:08:53.930Z,19.20
2018-03-01T03:11:23.164Z,19.20
2018-03-01T03:13:52.471Z,18.25
2018-03-01T03:16:21.810Z,17.12
2018-03-01T03:18:52.754Z,16.33
2018-03-01T03:21:22.745Z,18.52
2018-03-01T03:23:53.779Z,17.52
2018-03-01T03:26:23.680Z,19.37
2018-03-01T03:28:53.704Z,19.25
2018-03-01T03:31:23.662Z,19.35
2018-03-01T03:33:52.763Z,19.77
2018-03-01T03:36:22.754Z,18.25
2018-03-01T03:38:53.397Z,17.12
2018-03-01T03:41:23.101Z,19.73
2018-03-01T03:43:52.200Z,17.40
2018-03-01T03:46:22.169Z,17.35
2018-03-01T03:48:53.076Z,17.45
2018-03-01T03:51:24.157Z,17.00
2018-03-01T03:53:54.225Z,17.15
2018-03-01T03:56:23.384Z,17.95
2018-03-01T04:01:27.011Z,17.62
2018-03-01T04:03:56.968Z,16.70
2018-03-01T04:06:26.157Z,18.00
2018-03-01T04:08:56.546Z,18.12
2018-03-01T04:14:01.940Z,18.90
2018-03-01T04:16:32.891Z,20.55
2018-03-01T04:19:03.057Z,18.12
2018-03-01T04:21:32.365Z,18.77
2018-03-01T04:24:02.477Z,17.77
2018-03-01T04:26:31.825Z,16.90
2018-03-01T04:29:01.925Z,15.50
2018-03-01T04:31:31.135Z,20.70
2018-03-01T04:34:00.497Z,18.62
2018-03-01T04:36:31.382Z,18.20
2018-03-01T04:39:03.016Z,17.98
2018-03-01T04:41:32.212Z,18.75
2018-03-01T04:44:02.356Z,20.17
2018-03-01T04:46:34.096Z,18.33
2018-03-01T04:49:03.022Z,16.37
2018-03-01T04:51:32.219Z,18.58
2018-03-01T04:54:02.441Z,17.30
2018-03-01T04:56:33.112Z,15.82
2018-03-01T04:59:04.244Z,17.37
2018-03-01T05:01:34.092Z,16.90
2018-03-01T05:04:03.329Z,14.60
2018-03-01T05:06:34.469Z,16.42
2018-03-01T05:09:03.690Z,15.10
2018-03-01T05:11:34.470Z,15.40
2018-03-01T05:14:04.506Z,17.08
2018-03-01T05:16:34.467Z,18.15
2018-03-01T05:19:03.861Z,17.95
2018-03-01T05:24:11.367Z,19.67
2018-03-01T05:26:40.608Z,18.45
2018-03-01T05:29:10.585Z,15.27
2018-03-01T05:31:40.641Z,17.67
2018-03-01T05:34:09.930Z,16.52
2018-03-01T05:36:40.392Z,19.15
2018-03-01T05:39:12.366Z,18.08
2018-03-01T05:41:44.393Z,16.75
2018-03-01T05:44:13.686Z,16.60
2018-03-01T05:46:42.894Z,16.52
2018-03-01T05:49:14.715Z,14.87
2018-03-01T05:51:48.601Z,15.35
2018-03-01T05:54:19.036Z,18.65
2018-03-01T05:56:48.726Z,18.33
2018-03-01T05:59:18.849Z,15.00
2018-03-01T06:01:50.276Z,16.35
2018-03-01T06:04:19.417Z,16.42
2018-03-01T06:06:49.215Z,16.50
2018-03-01T06:09:19.452Z,16.77
2018-03-01T06:11:49.397Z,17.05
2018-03-01T06:14:19.078Z,17.80
2018-03-01T06:16:53.824Z,15.88
2018-03-01T06:19:24.885Z,15.73
2018-03-01T06:24:29.525Z,15.30
2018-03-01T06:26:58.749Z,16.05
2018-03-01T06:29:28.151Z,15.80
2018-03-01T06:31:57.385Z,15.75
2018-03-01T06:34:27.184Z,16.05
2018-03-01T06:36:56.306Z,16.08
2018-03-01T06:39:26.973Z,16.92
2018-03-01T06:41:56.190Z,13.88
2018-03-01T06:44:28.586Z,16.95
2018-03-01T06:46:58.610Z,15.60
2018-03-01T06:49:31.259Z,16.25
2018-03-01T06:52:02.919Z,17.60
2018-03-01T06:54:33.255Z,17.80
2018-03-01T06:57:02.455Z,17.05
2018-03-01T06:59:31.579Z,17.83
2018-03-01T07:02:00.855Z,19.05
2018-03-01T07:04:30.004Z,19.02
2018-03-01T07:06:59.184Z,18.50
2018-03-01T07:09:30.062Z,17.45
2018-03-01T07:11:59.929Z,18.25
2018-03-01T07:14:30.246Z,21.10
2018-03-01T07:16:59.926Z,19.73
2018-03-01T07:19:29.584Z,19.90
2018-03-01T07:22:00.481Z,22.73
2018-03-01T07:24:29.875Z,21.77
2018-03-01T07:27:00.675Z,22.42
2018-03-01T07:29:30.966Z,20.42
2018-03-01T07:32:01.057Z,20.00
2018-03-01T07:34:30.500Z,21.45
2018-03-01T07:36:59.721Z,20.52
2018-03-01T07:39:28.752Z,20.45
2018-03-01T07:41:58.752Z,21.98
2018-03-01T07:44:28.130Z,22.92
2018-03-01T07:46:57.270Z,20.67
2018-03-01T07:49:29.914Z,23.05
2018-03-01T07:51:59.368Z,22.42
2018-03-01T07:54:29.326Z,22.35
2018-03-01T07:56:58.428Z,21.05
2018-03-01T07:59:28.876Z,23.65
2018-03-01T08:02:01.089Z,23.83
2018-03-01T08:04:31.199Z,23.77
2018-03-01T08:09:37.011Z,21.02
2018-03-01T08:12:07.701Z,23.40
2018-03-01T08:14:38.333Z,28.62
2018-03-01T08:17:07.581Z,22.92
2018-03-01T08:19:36.584Z,20.77
2018-03-01T08:22:08.204Z,20.48
2018-03-01T08:24:37.503Z,21.50
2018-03-01T08:27:07.330Z,21.25
2018-03-01T08:29:39.468Z,20.60
2018-03-01T08:32:09.029Z,21.62
2018-03-01T08:34:39.213Z,21.60
2018-03-01T08:37:11.316Z,25.27
2018-03-01T08:39:41.105Z,24.00
2018-03-01T08:42:10.309Z,24.05
2018-03-01T08:44:39.580Z,24.70
2018-03-01T08:47:08.775Z,26.37
2018-03-01T08:49:39.020Z,26.15
2018-03-01T08:52:14.222Z,23.62
2018-03-01T08:54:45.205Z,25.52
2018-03-01T08:57:16.135Z,23.45
2018-03-01T08:59:45.665Z,22.48
2018-03-01T09:02:15.584Z,22.17
2018-03-01T09:04:46.384Z,22.80
2018-03-01T09:07:16.025Z,22.35
2018-03-01T09:09:44.933Z,24.35
2018-03-01T09:12:16.274Z,22.55
2018-03-01T09:14:46.270Z,23.33
2018-03-01T09:17:16.480Z,24.45
2018-03-01T09:19:47.295Z,28.62
2018-03-01T09:22:16.440Z,24.80
2018-03-01T09:24:46.257Z,25.27
2018-03-01T09:27:15.580Z,26.35
2018-03-01T09:29:44.809Z,26.10
2018-03-01T09:32:15.659Z,24.92
2018-03-01T09:34:46.718Z,25.50
2018-03-01T09:37:15.628Z,26.02
2018-03-01T09:39:44.908Z,24.98
2018-03-01T09:42:14.063Z,23.70
2018-03-01T09:44:43.328Z,22.98
2018-03-01T09:47:12.214Z,22.77
2018-03-01T09:49:42.398Z,22.98
2018-03-01T09:52:12.494Z,22.08
2018-03-01T09:54:44.273Z,22.73
2018-03-01T09:57:13.636Z,21.02
2018-03-01T09:59:42.915Z,22.55
2018-03-01T10:02:12.134Z,21.30
2018-03-01T10:04:41.955Z,23.30
2018-03-01T10:07:11.319Z,21.83
2018-03-01T10:09:40.743Z,24.80
2018-03-01T10:12:10.160Z,22.80
2018-03-01T10:14:39.439Z,22.30
2018-03-01T10:17:09.370Z,23.38
2018-03-01T10:19:38.928Z,22.87
2018-03-01T10:22:10.640Z,23.50
2018-03-01T10:24:40.700Z,20.77
2018-03-01T10:27:10.689Z,20.50
2018-03-01T10:29:45.290Z,21.67
2018-03-01T10:32:14.524Z,22.58
2018-03-01T10:34:44.485Z,21.58
2018-03-01T10:37:14.493Z,21.33
2018-03-01T10:39:44.493Z,21.50
2018-03-01T10:42:13.848Z,21.05
2018-03-01T10:44:43.709Z,22.27
2018-03-01T10:47:13.829Z,20.95
2018-03-01T10:49:43.980Z,23.33
2018-03-01T10:52:16.406Z,21.73
2018-03-01T10:54:52.324Z,20.15
2018-03-01T10:59:56.658Z,17.25
2018-03-01T11:02:27.393Z,19.65
2018-03-01T11:04:58.245Z,21.58
2018-03-01T11:07:27.335Z,19.90
2018-03-01T11:10:00.989Z,20.80
2018-03-01T11:12:31.239Z,21.10
2018-03-01T11:15:07.550Z,22.25
2018-03-01T11:17:37.529Z,21.20
2018-03-01T11:20:09.013Z,19.70
2018-03-01T11:22:38.140Z,16.15
2018-03-01T11:25:08.218Z,17.08
2018-03-01T11:27:38.890Z,16.35
2018-03-01T11:30:09.014Z,15.40
2018-03-01T11:32:38.570Z,15.65
2018-03-01T11:35:07.818Z,16.30
2018-03-01T11:37:39.570Z,15.07
2018-03-01T11:40:09.600Z,13.93
2018-03-01T11:42:39.838Z,15.50
2018-03-01T11:45:09.675Z,14.60
2018-03-01T11:47:39.385Z,14.82
2018-03-01T11:50:08.578Z,14.23
2018-03-01T11:52:42.864Z,15.00
2018-03-01T11:55:13.815Z,13.50
2018-03-01T11:57:42.913Z,12.30
2018-03-01T12:00:13.079Z,12.85
2018-03-01T12:02:42.250Z,13.48
2018-03-01T12:08:12.432Z,13.10
2018-03-01T12:10:42.102Z,14.27
2018-03-01T12:13:11.202Z,12.55
2018-03-01T12:15:43.164Z,13.75
2018-03-01T12:18:12.014Z,17.15
2018-03-01T12:20:41.388Z,13.85
2018-03-01T12:23:12.132Z,11.70
2018-03-01T12:25:41.263Z,11.90
2018-03-01T12:28:11.208Z,11.80
2018-03-01T12:30:42.016Z,11.98
2018-03-01T12:33:12.069Z,12.05
2018-03-01T12:35:41.175Z,13.75
2018-03-01T12:38:10.379Z,11.38
2018-03-01T12:40:40.437Z,11.15
2018-03-01T12:43:09.442Z,12.23
2018-03-01T12:45:38.699Z,13.50
2018-03-01T12:48:07.835Z,10.70
2018-03-01T12:50:37.930Z,11.60
2018-03-01T12:53:09.146Z,11.85
2018-03-01T12:55:39.105Z,11.23
2018-03-01T12:58:12.753Z,12.05
2018-03-01T13:00:41.211Z,12.85
2018-03-01T13:03:10.442Z,12.27
2018-03-01T13:05:43.348Z,13.30
2018-03-01T13:08:12.561Z,12.37
2018-03-01T13:10:42.191Z,14.40
2018-03-01T13:13:11.385Z,12.10
2018-03-01T13:15:41.500Z,13.15
2018-03-01T13:18:13.944Z,12.00
2018-03-01T13:20:43.276Z,13.15
2018-03-01T13:23:12.398Z,13.62
2018-03-01T13:25:43.042Z,14.02
2018-03-01T13:28:12.006Z,16.10
2018-03-01T13:30:44.278Z,14.98
2018-03-01T13:33:33.238Z,11.82
2018-03-01T13:36:03.223Z,13.18
2018-03-01T13:38:33.083Z,13.07
2018-03-01T13:41:03.021Z,14.32
2018-03-01T13:46:51.662Z,12.10
2018-03-01T13:49:21.814Z,13.00
2018-03-01T13:51:50.913Z,13.15
2018-03-01T13:54:20.242Z,12.40
2018-03-01T13:56:49.417Z,12.00
2018-03-01T13:59:19.399Z,12.60
2018-03-01T14:01:49.171Z,12.10
2018-03-01T14:04:19.416Z,12.73
2018-03-01T14:09:51.678Z,14.52
2018-03-01T14:12:36.282Z,15.98
2018-03-01T14:15:06.459Z,12.88
2018-03-01T14:17:50.443Z,14.07
2018-03-01T14:20:37.201Z,15.65
2018-03-01T14:26:08.862Z,16.00
2018-03-01T14:28:43.782Z,15.50
2018-03-01T14:31:15.426Z,11.85
2018-03-01T14:33:45.742Z,12.43
2018-03-01T14:36:15.801Z,13.18
2018-03-01T14:38:45.168Z,13.30
2018-03-01T14:41:14.278Z,12.32
2018-03-01T14:46:20.272Z,11.77
2018-03-01T14:48:49.487Z,12.18
2018-03-01T14:51:18.778Z,11.80
2018-03-01T14:53:49.612Z,12.35
2018-03-01T14:56:20.179Z,10.98
2018-03-01T14:58:50.022Z,12.32
2018-03-01T15:01:19.573Z,11.75
2018-03-01T15:03:48.661Z,11.75
2018-03-01T15:06:17.862Z,12.32
2018-03-01T15:08:48.289Z,11.55
2018-03-01T15:11:22.982Z,10.57
2018-03-01T15:13:53.043Z,16.33
2018-03-01T15:16:23.218Z,13.45
2018-03-01T15:18:53.293Z,14.73
2018-03-01T15:21:22.542Z,14.95
2018-03-01T15:23:51.733Z,14.45
2018-03-01T15:26:21.987Z,15.68
2018-03-01T15:28:51.049Z,16.25
2018-03-01T15:31:20.115Z,12.70
2018-03-01T15:36:25.686Z,14.95
2018-03-01T15:38:57.318Z,13.35
2018-03-01T15:41:27.628Z,14.90
2018-03-01T15:43:57.883Z,14.32
2018-03-01T15:46:27.808Z,16.50
2018-03-01T15:51:31.943Z,19.45
2018-03-01T15:54:01.248Z,21.45
2018-03-01T15:56:32.422Z,17.73
2018-03-01T15:59:02.368Z,16.30
2018-03-01T16:01:33.018Z,15.90
2018-03-01T16:04:03.794Z,15.05
2018-03-01T16:06:33.067Z,17.80
2018-03-01T16:09:02.378Z,14.90
2018-03-01T16:11:32.697Z,16.77
2018-03-01T16:14:01.964Z,17.80
2018-03-01T16:16:30.952Z,14.70
2018-03-01T16:19:02.643Z,16.60
2018-03-01T16:21:32.727Z,17.42
2018-03-01T16:24:01.719Z,14.70
2018-03-01T16:26:31.772Z,16.00
2018-03-01T16:29:02.424Z,15.60
2018-03-01T16:31:31.435Z,16.70
2018-03-01T16:34:01.557Z,18.65
2018-03-01T16:36:30.786Z,15.30
2018-03-01T16:38:59.884Z,15.48
2018-03-01T16:44:03.750Z,16.08
2018-03-01T16:46:34.849Z,18.98
2018-03-01T16:49:09.953Z,18.83
2018-03-01T16:51:39.088Z,20.88
2018-03-01T16:54:09.173Z,20.35
2018-03-01T16:56:40.846Z,19.73
2018-03-01T16:59:10.061Z,24.60
2018-03-01T17:01:39.923Z,22.02
2018-03-01T17:04:10.350Z,19.48
2018-03-01T17:06:40.625Z,14.35
2018-03-01T17:09:09.938Z,16.08
2018-03-01T17:11:39.033Z,16.37
2018-03-01T17:14:09.797Z,18.27
2018-03-01T17:16:39.108Z,16.10
2018-03-01T17:19:08.303Z,20.12
2018-03-01T17:21:38.286Z,14.57
2018-03-01T17:24:08.434Z,15.02
2018-03-01T17:26:38.478Z,14.45
2018-03-01T17:29:10.033Z,14.95
2018-03-01T17:31:41.644Z,18.33
2018-03-01T17:34:11.755Z,16.70
2018-03-01T17:36:41.487Z,14.65
2018-03-01T17:41:45.952Z,16.17
2018-03-01T17:44:18.038Z,17.10
2018-03-01T17:49:29.203Z,18.80
2018-03-01T17:52:01.313Z,20.50
2018-03-01T17:54:30.537Z,19.92
2018-03-01T17:56:59.568Z,19.60
2018-03-01T17:59:28.868Z,18.60
2018-03-01T18:01:58.229Z,26.35
2018-03-01T18:04:28.862Z,21.45
2018-03-01T18:06:59.659Z,17.75
2018-03-01T18:09:30.556Z,18.00
2018-03-01T18:12:00.651Z,16.92
2018-03-01T18:14:30.091Z,19.87
2018-03-01T18:16:59.387Z,18.48
2018-03-01T18:22:05.298Z,20.95
2018-03-01T18:24:35.283Z,21.92
2018-03-01T18:27:06.450Z,17.02
2018-03-01T18:29:35.542Z,25.62
2018-03-01T18:32:05.397Z,41.65
2018-03-01T18:34:34.775Z,78.00
2018-03-01T18:37:04.153Z,58.35
2018-03-01T18:39:33.263Z,30.42
2018-03-01T18:42:05.064Z,23.17
2018-03-01T18:44:34.705Z,19.92
2018-03-01T18:47:04.767Z,17.37
2018-03-01T18:49:36.982Z,15.30
2018-03-01T18:52:06.164Z,19.08
2018-03-01T18:54:36.423Z,15.05
2018-03-01T18:57:06.845Z,19.15
2018-03-01T18:59:36.452Z,18.60
2018-03-01T19:02:06.545Z,17.75
2018-03-01T19:04:37.365Z,15.43
2018-03-01T19:07:07.536Z,14.60
2018-03-01T19:09:37.411Z,16.25
2018-03-01T19:12:09.324Z,16.55
2018-03-01T19:14:38.467Z,19.40
2018-03-01T19:17:09.145Z,16.65
2018-03-01T19:22:13.995Z,20.77
2018-03-01T19:24:44.235Z,18.98
2018-03-01T19:27:17.737Z,20.73
2018-03-01T19:29:46.872Z,22.80
2018-03-01T19:32:16.807Z,20.27
2018-03-01T19:34:46.865Z,19.42
2018-03-01T19:37:16.766Z,20.58
2018-03-01T19:39:49.464Z,19.15
2018-03-01T19:42:18.552Z,17.30
2018-03-01T19:44:47.732Z,17.33
2018-03-01T19:47:18.536Z,18.52
2018-03-01T19:49:49.288Z,15.75
2018-03-01T19:52:18.670Z,16.70
2018-03-01T19:54:47.870Z,15.77
2018-03-01T19:57:19.647Z,15.05
2018-03-01T19:59:48.775Z,16.60
2018-03-01T20:02:17.979Z,16.05
2018-03-01T20:04:47.031Z,14.48
2018-03-01T20:07:16.465Z,15.85
2018-03-01T20:09:45.759Z,15.15
2018-03-01T20:12:14.973Z,16.60
2018-03-01T20:14:45.142Z,19.05
2018-03-01T20:17:14.741Z,17.00
2018-03-01T20:19:46.767Z,17.83
2018-03-01T20:22:17.384Z,21.37
2018-03-01T20:24:46.707Z,22.48
2018-03-01T20:29:51.057Z,17.33
2018-03-01T20:32:21.031Z,17.75
2018-03-01T20:34:50.241Z,16.10
2018-03-01T20:37:19.547Z,15.90
2018-03-01T20:39:49.109Z,16.73
2018-03-01T20:42:18.637Z,18.35
2018-03-01T20:44:48.222Z,15.20
2018-03-01T20:47:17.305Z,16.05
2018-03-01T20:52:21.274Z,13.15
2018-03-01T20:54:52.949Z,13.68
2018-03-01T20:57:23.015Z,14.82
2018-03-01T20:59:52.914Z,14.90
2018-03-01T21:02:22.035Z,13.80
2018-03-01T21:04:52.935Z,14.87
2018-03-01T21:07:22.070Z,13.68
2018-03-01T21:09:51.690Z,14.85
2018-03-01T21:12:21.510Z,14.52
2018-03-01T21:14:50.687Z,13.38
2018-03-01T21:17:19.940Z,15.85
2018-03-01T21:19:49.892Z,15.80
2018-03-01T21:22:19.951Z,14.80
2018-03-01T21:24:49.229Z,15.98
2018-03-01T21:27:18.978Z,14.95
2018-03-01T21:29:48.043Z,14.55
2018-03-01T21:32:18.310Z,14.27
2018-03-01T21:34:50.156Z,13.65
2018-03-01T21:37:19.323Z,14.90
2018-03-01T21:39:48.443Z,15.15
2018-03-01T21:42:17.772Z,14.70
2018-03-01T21:44:48.548Z,14.00
2018-03-01T21:47:17.748Z,14.80
2018-03-01T21:49:48.620Z,12.68
2018-03-01T21:52:18.681Z,14.40
2018-03-01T21:54:48.630Z,14.02
2018-03-01T21:57:20.385Z,13.38
2018-03-01T21:59:56.035Z,15.10
2018-03-01T22:02:28.021Z,14.23
2018-03-01T22:04:57.457Z,14.18
2018-03-01T22:07:27.255Z,13.18
2018-03-01T22:09:57.100Z,14.65
2018-03-01T22:12:26.338Z,12.88
2018-03-01T22:14:55.459Z,14.87
2018-03-01T22:17:25.371Z,13.65
2018-03-01T22:19:55.201Z,13.38
2018-03-01T22:22:24.172Z,13.95
2018-03-01T22:24:53.372Z,15.30
2018-03-01T22:27:22.482Z,14.48
2018-03-01T22:29:51.607Z,14.30
2018-03-01T22:32:21.031Z,13.77
2018-03-01T22:34:50.283Z,14.25
2018-03-01T22:37:19.388Z,17.08
2018-03-01T22:39:50.292Z,13.68
2018-03-01T22:42:19.300Z,15.27
2018-03-01T22:44:48.501Z,14.43
2018-03-01T22:47:18.450Z,14.40
2018-03-01T22:49:48.220Z,14.18
2018-03-01T22:52:17.287Z,15.05
2018-03-01T22:54:47.258Z,16.40
2018-03-01T22:57:18.879Z,16.10
2018-03-01T22:59:49.762Z,17.62
2018-03-01T23:02:18.892Z,19.10
2018-03-01T23:04:48.097Z,16.73
2018-03-01T23:07:17.205Z,16.30
2018-03-01T23:09:46.541Z,16.95
2018-03-01T23:12:15.628Z,16.77
2018-03-01T23:14:45.634Z,14.07
2018-03-01T23:17:15.776Z,14.45
2018-03-01T23:19:44.772Z,14.30
2018-03-01T23:22:14.670Z,14.20
2018-03-01T23:24:44.662Z,13.20
2018-03-01T23:27:13.781Z,15.55
2018-03-01T23:29:42.884Z,14.35
2018-03-01T23:32:11.840Z,13.95
2018-03-01T23:34:41.036Z,13.52
2018-03-01T23:37:10.202Z,14.27
2018-03-01T23:39:39.347Z,14.20
2018-03-01T23:42:08.434Z,15.77
2018-03-01T23:44:41.611Z,14.30
2018-03-01T23:47:10.790Z,13.80
2018-03-01T23:49:40.034Z,13.30
2018-03-01T23:52:09.316Z,14.25
2018-03-01T23:54:39.645Z,15.77
2018-03-01T23:57:08.670Z,14.00
2018-03-01T23:59:38.997Z,15.45
